Date,TemperatureHighF,TemperatureAvgF,TemperatureLowF,DewpointHighF,DewpointAvgF,DewpointLowF,HumidityHigh,HumidityAvg,HumidityLow,PressureMaxIn,PressureMinIn,WindSpeedMaxMPH,WindSpeedAvgMPH,GustSpeedMaxMPH,PrecipitationSumIn
2014-1-1,30.4,25.1,19.6,-9.6,-17.7,-20.5,22,14,12,30.50,30.27,9,3,13,0.04
2014-1-2,33.6,29.1,23.9,22.0,11.6,-12.4,64,50,18,30.47,29.74,11,1,11,0.00
2014-1-3,27.7,21.6,14.5,17.8,2.9,-19.4,66,47,18,30.47,29.56,11,4,14,0.00
2014-1-4,36.0,21.3,4.3,13.0,-7.1,-18.6,41,29,13,30.65,30.39,6,1,11,0.00
2014-1-5,46.8,35.9,22.8,41.9,15.1,-2.0,83,45,18,30.47,30.09,6,0,11,0.98
2014-1-6,56.1,47.7,30.7,54.7,45.8,5.1,98,94,33,30.09,29.44,11,3,17,0.35
2014-1-7,30.6,19.1,10.0,7.8,-18.0,-27.2,46,18,14,30.36,29.59,9,0,10,0.00
2014-1-8,25.3,17.0,10.0,-18.6,-23.2,-27.3,16,15,13,30.59,30.36,0,0,0,0.00
2014-1-9,28.9,20.7,11.7,-3.5,-17.5,-23.3,41,19,12,30.77,30.56,0,0,0,0.00
2014-1-10,43.2,30.2,10.8,38.8,16.9,-10.9,85,58,36,30.74,30.42,5,0,6,0.04
2014-1-11,57.2,52.4,43.2,54.9,48.2,38.6,96,86,57,30.39,29.44,12,4,17,0.75
2014-1-12,51.6,43.9,34.5,50.5,14.4,-11.3,97,43,9,30.06,29.41,10,3,11,0.12
2014-1-13,47.5,39.7,28.6,31.5,11.8,-9.4,58,34,10,30.27,30.06,8,1,11,0.00
2014-1-14,54.3,50.6,46.6,52.6,41.2,31.1,95,72,48,30.06,29.65,10,2,11,0.67
2014-1-15,49.5,40.9,34.7,44.5,27.0,8.3,93,62,19,30.15,29.83,7,0,9,0.00
2014-1-16,45.0,41.6,36.0,36.5,32.6,26.4,73,70,67,30.00,29.91,0,0,4,0.00
2014-1-17,46.4,38.0,29.7,33.2,20.3,3.4,75,52,17,30.09,30.00,5,1,8,0.00
2014-1-18,44.1,38.5,30.9,34.2,27.7,17.9,72,65,49,30.03,29.65,6,1,10,0.16
2014-1-19,36.9,34.8,32.7,27.5,9.3,-8.9,72,40,14,29.83,29.68,8,2,14,0.00
2014-1-20,47.8,38.8,33.6,1.1,-7.9,-13.3,22,13,8,29.91,29.59,12,3,12,0.00
2014-1-21,33.4,25.1,20.7,10.6,-8.8,-20.4,54,26,12,30.12,29.83,10,2,10,0.00
2014-1-22,26.6,22.7,17.1,12.5,-0.4,-22.0,58,39,15,29.91,29.53,11,4,14,0.00
2014-1-23,23.5,17.3,12.2,-7.8,-19.1,-25.4,36,19,13,30.27,29.91,9,3,11,0.00
2014-1-24,18.7,12.3,4.6,-22.2,-25.9,-31.7,16,16,14,30.33,30.21,11,2,11,0.00
2014-1-25,40.8,30.1,6.6,18.4,2.7,-30.0,54,33,16,30.21,29.41,12,3,13,0.16
2014-1-26,30.2,24.3,20.3,12.4,-13.0,-21.3,47,20,13,30.03,29.41,12,3,16,0.00
2014-1-27,47.8,37.0,25.0,27.6,9.8,-17.6,54,35,12,30.03,29.65,10,3,13,0.08
2014-1-28,28.6,22.7,18.5,-17.6,-19.8,-22.9,14,14,12,30.42,30.03,11,3,15,0.00
2014-1-29,25.9,22.4,18.1,5.2,-13.7,-21.7,43,20,13,30.33,30.09,8,1,10,0.00
2014-1-30,31.8,22.2,12.2,8.4,-18.7,-25.4,41,15,12,30.56,30.30,6,1,8,0.08
2014-1-31,38.1,34.5,29.7,21.7,1.2,-13.0,55,28,11,30.36,30.12,6,1,8,0.08
2014-2-1,45.9,37.0,32.5,16.4,-4.1,-12.6,45,19,9,30.47,30.18,5,1,8,0.00
2014-2-2,51.8,43.1,36.0,35.0,16.4,-3.8,64,37,11,30.18,29.94,6,1,6,0.00
2014-2-3,41.7,36.5,34.2,21.5,16.8,10.9,59,45,29,30.36,30.12,4,0,6,0.47
2014-2-4,37.2,32.5,28.6,21.9,13.7,8.2,60,46,32,30.56,30.36,5,0,6,0.16
2014-2-5,35.4,33.2,29.3,26.6,20.3,9.1,71,60,42,30.47,29.62,6,1,8,0.39
2014-2-6,33.3,29.5,23.9,24.9,13.1,2.4,71,51,36,30.33,29.94,0,0,0,0.04
2014-2-7,33.3,27.8,24.4,6.1,-12.4,-17.5,42,17,12,30.39,30.27,4,0,5,0.08
2014-2-8,33.8,27.5,21.9,-4.4,-15.2,-19.6,27,15,11,30.39,30.21,4,0,5,0.04
2014-2-9,36.9,31.3,27.9,9.4,-1.1,-16.0,40,26,12,30.21,30.03,5,0,6,0.04
2014-2-10,30.7,28.2,26.2,10.4,-6.6,-19.0,43,24,12,30.30,29.97,9,3,11,0.00
2014-2-11,29.7,25.5,22.8,-16.7,-18.7,-20.4,14,13,12,30.47,30.30,8,2,10,0.00
2014-2-12,34.7,25.7,20.5,-9.1,-17.1,-21.1,21,14,11,30.65,30.47,14,2,14,0.00
2014-2-13,42.8,36.2,25.5,35.8,20.8,-9.0,77,55,21,30.53,29.00,12,1,12,2.01
2014-2-14,46.0,37.5,33.3,39.6,18.1,-4.7,82,51,16,29.83,28.82,10,4,17,0.04
2014-2-15,37.4,34.2,30.0,23.9,13.3,-1.0,67,44,22,29.88,29.29,4,0,6,0.04
2014-2-16,33.6,29.2,27.0,24.2,8.3,0.4,68,43,31,30.00,29.29,0,0,0,0.40
2014-2-17,28.2,24.8,20.3,0.4,-14.9,-19.5,31,17,13,30.45,30.03,9,3,11,0.04
2014-2-18,39.0,29.1,16.7,30.6,7.2,-18.0,72,42,16,30.47,29.88,9,2,11,0.04
2014-2-19,43.9,35.4,27.0,35.6,18.0,3.0,76,51,21,30.21,29.71,10,1,14,0.35
2014-2-20,48.9,39.6,34.3,28.9,8.1,-12.4,77,37,8,30.33,29.88,6,2,10,0.00
2014-2-21,54.5,43.4,36.7,49.5,32.6,14.6,84,66,40,30.27,29.80,11,1,13,0.51
2014-2-22,53.1,42.6,36.7,42.5,15.3,-9.9,84,44,8,30.09,29.91,8,2,9,0.00
2014-2-23,52.3,43.3,37.4,24.1,10.3,-2.6,46,28,11,30.12,29.85,7,1,10,0.00
2014-2-24,43.2,37.0,27.9,18.3,-4.8,-18.2,43,18,9,30.00,29.80,11,4,13,0.00
2014-2-25,32.4,28.0,24.1,-14.6,-17.6,-19.6,13,12,12,30.09,29.94,12,4,13,0.00
2014-2-26,32.5,26.7,21.2,2.2,-16.9,-20.7,32,14,12,30.03,29.83,8,2,10,0.00
2014-2-27,35.4,26.2,16.5,4.9,-14.6,-23.3,37,16,11,29.94,29.68,10,2,13,0.00
2014-2-28,29.3,20.9,14.2,-17.1,-21.0,-25.0,15,14,12,30.56,29.94,11,3,17,0.04
2014-3-1,39.4,27.4,13.6,13.6,-10.7,-25.0,41,19,10,30.56,30.24,8,1,10,0.00
2014-3-2,38.1,34.8,32.7,13.3,-0.4,-12.3,42,24,11,30.24,30.03,5,1,6,0.00
2014-3-3,33.4,26.6,23.2,10.7,-7.8,-18.9,42,24,14,30.36,30.03,11,2,11,0.00
2014-3-4,34.0,26.7,17.8,-11.9,-16.3,-22.0,20,14,12,30.45,30.36,6,1,6,0.16
2014-3-5,35.6,30.1,25.7,8.2,-7.7,-17.5,39,20,12,30.53,30.33,5,1,8,0.00
2014-3-6,35.8,26.8,19.0,-8.6,-15.9,-20.0,18,14,12,30.71,30.53,5,1,8,0.04
2014-3-7,38.8,30.3,17.6,15.9,-1.5,-17.8,45,26,14,30.65,30.00,4,0,6,0.00
2014-3-8,48.2,38.8,32.5,30.4,9.3,-10.3,62,35,9,30.00,29.77,7,1,8,0.00
2014-3-9,42.4,35.8,28.8,8.8,-8.2,-16.6,32,15,10,30.00,29.91,8,2,12,0.00
2014-3-10,42.8,35.3,30.4,18.4,1.2,-14.6,48,25,13,29.97,29.77,6,1,6,0.00
2014-3-11,55.8,43.9,35.8,28.4,8.6,-9.4,59,31,7,29.80,29.59,8,2,10,0.00
2014-3-12,57.9,46.7,35.4,45.2,20.7,-1.1,76,40,9,29.80,29.00,12,2,13,0.28
2014-3-13,52.7,29.1,21.9,45.2,7.9,-18.6,76,44,15,29.97,28.97,8,1,12,0.08
2014-3-14,37.6,28.6,20.3,12.3,-12.9,-21.3,36,16,10,30.30,29.97,9,2,10,0.08
2014-3-15,53.1,43.7,37.4,30.9,8.4,-10.8,53,27,9,30.06,29.77,9,2,10,0.00
2014-3-16,42.4,35.8,32.4,-6.1,-13.1,-15.1,14,11,10,30.27,29.94,10,3,14,0.00
2014-3-17,33.1,28.3,20.8,-14.0,-16.8,-20.7,15,13,12,30.27,30.21,6,2,7,0.00
2014-3-18,44.1,29.9,19.8,1.2,-14.4,-20.4,31,14,9,30.47,30.27,4,0,7,0.00
2014-3-19,51.3,37.6,28.6,21.8,-3.8,-16.0,50,19,8,30.50,30.09,5,0,7,0.00
2014-3-20,56.7,46.3,39.0,43.8,20.5,-9.4,75,43,9,30.09,29.68,10,2,12,0.43
2014-3-21,50.0,40.6,35.8,8.5,-9.5,-14.2,30,12,8,30.12,29.85,10,3,13,0.00
2014-3-22,54.1,41.6,29.3,7.9,-8.2,-15.4,31,12,8,30.15,29.77,9,2,17,0.00
2014-3-23,46.0,39.0,32.7,1.0,-10.3,-15.1,22,12,9,30.09,29.94,7,2,10,0.00
2014-3-24,36.9,29.4,23.9,-12.7,-16.6,-19.8,13,12,11,30.24,30.09,8,3,12,0.00
2014-3-25,42.6,30.9,20.7,-10.1,-15.8,-20.8,15,12,10,30.27,29.94,6,1,8,0.00
2014-3-26,35.1,30.9,26.1,19.9,10.1,-14.7,66,48,11,30.00,29.41,22,7,23,0.00
2014-3-27,35.1,29.2,22.5,15.2,4.0,-8.5,63,36,15,30.45,30.00,14,5,17,0.31
2014-3-28,53.4,44.0,34.9,35.8,20.4,9.4,64,40,21,30.42,30.12,14,3,14,0.24
2014-3-29,51.6,44.8,39.4,40.2,32.3,28.6,67,62,46,30.36,30.06,6,1,7,0.91
2014-3-30,55.6,48.2,41.0,51.3,42.0,31.6,87,79,64,30.06,29.59,10,3,14,0.87
2014-3-31,41.0,38.4,35.6,35.6,31.6,25.0,81,77,65,30.00,29.68,11,3,12,0.28
2014-4-1,45.9,38.7,34.9,27.9,19.4,2.4,66,49,18,30.18,30.00,7,2,12,0.04
2014-4-2,50.0,40.3,32.2,20.2,4.6,-11.1,47,26,8,30.24,30.12,5,0,6,0.00
2014-4-3,58.1,42.7,34.0,23.5,3.1,-10.8,50,24,6,30.24,30.15,8,1,11,0.00
2014-4-4,57.4,44.0,34.9,21.8,9.2,-7.7,45,28,7,30.27,29.94,4,0,8,0.04
2014-4-5,59.0,47.4,40.5,41.1,23.8,-10.0,71,45,10,30.00,29.71,11,2,13,0.08
2014-4-6,61.2,44.0,36.0,3.2,-9.4,-12.3,21,10,5,30.30,30.00,10,2,11,0.00
2014-4-7,56.1,45.4,35.8,31.4,3.7,-10.7,56,22,6,30.36,30.03,8,1,10,0.08
2014-4-8,57.0,50.3,45.9,51.3,43.6,31.8,84,78,57,30.03,29.47,8,2,12,0.59
2014-4-9,64.8,48.6,43.0,40.7,12.6,-9.9,81,34,5,30.03,29.56,6,2,9,0.00
2014-4-10,60.3,46.6,34.2,18.2,-6.4,-14.2,31,11,6,30.30,30.03,8,2,12,0.00
2014-4-11,68.4,53.8,47.7,24.7,10.6,-8.0,39,21,5,30.18,30.03,8,2,10,0.00
2014-4-12,67.6,53.2,46.9,28.8,9.0,-12.5,44,22,4,30.36,30.03,8,2,11,0.00
2014-4-13,67.5,53.0,42.6,41.0,13.1,-12.0,59,26,4,30.42,30.21,12,2,12,0.00
2014-4-14,72.3,59.1,52.9,44.8,31.7,1.0,65,41,6,30.21,30.09,13,4,13,0.00
2014-4-15,66.7,59.4,55.4,48.0,35.9,23.2,68,43,20,30.09,29.71,15,5,17,0.31
2014-4-16,58.5,40.1,33.1,50.0,5.0,-14.2,74,32,8,30.71,29.71,13,4,16,0.75
2014-4-17,45.7,38.6,33.6,0.7,-10.3,-13.4,22,12,9,30.89,30.71,6,1,10,0.00
2014-4-18,46.6,41.2,35.6,20.5,9.4,-4.3,46,28,12,30.77,30.39,4,0,5,0.00
2014-4-19,63.5,47.7,32.9,29.4,3.0,-10.7,64,25,5,30.50,30.27,8,2,11,0.00
2014-4-20,55.9,44.7,32.4,17.8,-0.4,-10.7,43,19,6,30.62,30.47,5,0,8,0.00
2014-4-21,64.6,48.8,32.4,32.2,11.4,-8.0,63,31,5,30.47,29.97,8,1,9,0.00
2014-4-22,66.7,54.2,39.7,37.5,15.4,-8.0,62,30,5,29.97,29.59,6,2,8,0.00
2014-4-23,62.4,50.1,44.4,42.5,33.7,15.2,69,55,21,29.62,29.41,10,3,13,1.38
2014-4-24,59.9,48.5,42.8,16.0,-3.8,-11.7,29,12,6,29.97,29.59,13,6,19,0.00
2014-4-25,60.6,51.1,44.1,0.8,-6.9,-10.8,14,9,6,30.09,29.97,8,2,9,0.00
2014-4-26,53.1,45.7,37.6,26.4,9.7,-7.7,45,25,8,29.97,29.83,5,0,6,0.04
2014-4-27,54.5,43.5,34.5,26.9,16.5,-7.2,55,37,8,30.09,29.94,6,1,8,0.08
2014-4-28,56.7,47.5,42.8,29.2,9.1,-7.7,55,25,7,30.30,30.03,8,2,10,0.00
2014-4-29,52.5,45.6,41.5,20.8,8.4,-8.4,40,25,8,30.65,30.30,6,1,9,0.00
2014-4-30,51.8,44.6,41.2,35.4,20.4,3.3,69,40,14,30.65,30.33,6,0,8,0.12
2014-5-1,59.5,53.2,45.0,55.8,46.8,35.4,92,79,69,30.33,29.74,8,2,12,0.91
2014-5-2,71.1,56.7,48.6,49.1,17.3,-14.5,83,38,3,29.88,29.74,8,1,10,0.04
2014-5-3,70.0,55.5,39.7,35.2,4.4,-14.5,56,20,3,29.97,29.83,8,1,9,0.00
2014-5-4,68.2,56.8,49.6,33.3,2.2,-12.5,51,15,4,29.85,29.59,10,2,13,0.00
2014-5-5,68.5,56.2,46.9,18.8,-0.4,-12.5,32,12,4,29.91,29.68,8,2,10,0.00
2014-5-6,66.7,55.9,45.3,19.7,-3.7,-12.5,33,10,4,30.09,29.91,8,1,8,0.00
2014-5-7,67.6,53.9,41.5,20.6,-2.1,-12.5,40,12,4,30.33,30.09,6,1,8,0.00
2014-5-8,70.9,58.1,47.1,34.1,9.6,-9.9,50,20,4,30.30,30.21,8,1,8,0.00
2014-5-9,64.4,55.5,50.5,41.2,18.4,-12.5,59,31,5,30.36,30.21,9,1,10,0.00
2014-5-10,71.8,61.4,56.7,47.0,27.2,1.0,62,30,6,30.21,29.91,14,3,14,0.00
2014-5-11,77.4,64.8,53.4,48.8,9.7,-20.0,65,21,2,30.12,29.88,10,2,10,0.16
2014-5-12,81.1,65.9,49.8,20.4,-2.4,-19.9,30,10,2,30.21,30.12,10,2,10,0.00
2014-5-13,61.3,52.2,46.8,24.9,10.4,-7.6,37,21,7,30.45,30.12,6,1,8,0.00
2014-5-14,63.7,54.4,45.3,33.1,16.7,-6.9,51,28,6,30.47,30.42,5,0,6,0.00
2014-5-15,77.7,66.5,56.8,42.9,14.8,-12.1,55,22,3,30.45,30.39,8,2,10,0.00
2014-5-16,76.6,64.5,57.2,42.7,26.4,-11.7,56,33,3,30.39,30.15,12,2,13,0.00
2014-5-17,75.6,64.6,55.0,56.9,25.0,-13.7,82,36,3,30.15,30.00,13,2,15,0.16
2014-5-18,70.2,58.7,48.0,24.9,4.8,-14.5,39,14,3,30.18,30.12,8,2,8,0.00
2014-5-19,71.2,57.7,47.5,30.9,7.5,-14.5,48,21,3,30.15,30.09,6,2,9,0.00
2014-5-20,67.8,57.9,50.7,41.9,19.0,-7.8,69,32,5,30.09,30.03,8,2,9,0.24
2014-5-21,70.3,58.3,47.7,42.8,21.5,-8.6,62,33,4,30.09,30.03,4,0,7,0.00
2014-5-22,63.0,53.6,50.0,39.7,32.9,7.2,64,48,11,30.06,29.97,4,0,6,0.08
2014-5-23,66.7,57.4,51.4,42.8,25.0,-8.0,66,38,5,30.06,29.97,5,0,6,0.00
2014-5-24,65.7,56.3,50.4,37.3,16.5,-8.0,59,28,5,30.15,30.00,7,1,9,0.00
2014-5-25,70.2,58.6,51.8,31.5,14.1,-8.8,42,23,4,30.21,30.12,5,0,6,0.00
2014-5-26,72.7,64.7,54.7,47.0,18.7,-8.8,67,27,4,30.18,29.91,5,1,9,0.00
2014-5-27,72.7,60.1,52.5,42.9,28.1,1.0,65,34,6,30.03,29.88,4,0,6,0.00
2014-5-28,53.1,50.6,46.6,43.1,39.9,29.6,72,67,50,30.30,29.94,6,1,8,0.12
2014-5-29,64.6,53.1,43.9,38.6,16.6,-8.0,66,33,5,30.36,30.27,4,0,6,0.00
2014-5-30,68.4,53.9,39.7,35.3,10.7,-12.5,60,27,4,30.30,30.12,4,0,7,0.00
2014-5-31,64.8,56.3,50.2,36.7,16.7,-7.8,54,28,5,30.36,30.15,6,1,8,0.00
2014-6-1,72.7,60.7,50.2,34.3,4.4,-14.4,49,16,3,30.45,30.36,4,1,6,0.00
2014-6-2,81.7,64.2,49.3,30.9,5.3,-19.8,44,17,2,30.39,30.15,4,0,7,0.00
2014-6-3,74.8,63.0,54.9,34.4,10.3,-14.5,44,19,3,30.18,30.03,6,1,8,0.00
2014-6-4,70.0,58.4,52.9,42.6,33.7,8.3,60,43,9,30.03,29.88,4,0,230,0.00
2014-6-5,61.5,58.9,56.8,52.0,45.6,37.2,76,62,47,29.88,29.62,5,1,8,0.75
2014-6-6,78.4,64.2,54.5,50.6,27.5,-12.1,76,38,3,29.94,29.77,5,1,8,0.00
2014-6-7,82.4,69.1,58.3,38.3,10.6,-16.6,46,17,2,30.03,29.94,4,0,5,0.00
2014-6-8,83.1,69.8,58.5,44.3,13.6,-16.5,50,20,2,30.03,29.97,4,0,6,0.00
2014-6-9,78.3,68.2,60.3,45.7,21.0,-12.0,53,24,3,30.12,30.00,4,0,6,0.00
2014-6-10,72.5,66.5,60.1,58.7,46.0,34.7,65,49,33,30.18,30.06,5,0,6,0.20
2014-6-11,69.8,62.2,57.7,38.5,27.5,0.6,46,30,7,30.30,30.18,4,1,6,0.00
2014-6-12,68.7,62.4,57.7,38.4,28.0,8.5,45,29,10,30.30,30.18,6,1,8,0.00
2014-6-13,66.0,61.6,58.6,59.7,49.9,33.7,80,67,36,30.18,29.88,6,1,10,0.83
2014-6-14,70.9,66.5,62.6,63.0,54.2,40.3,82,67,36,29.97,29.91,3,0,6,0.08
2014-6-15,82.2,68.6,59.9,49.7,15.1,-16.6,61,22,2,30.12,29.97,5,1,7,0.00
2014-6-16,78.1,66.5,59.0,37.3,8.6,-20.0,42,17,2,30.27,30.12,4,0,6,0.00
2014-6-17,74.8,67.3,61.2,57.3,35.0,11.6,70,34,13,30.24,30.03,5,1,8,0.04
2014-6-18,86.9,74.6,66.7,58.9,24.7,-16.6,75,33,2,30.03,29.83,8,1,8,0.00
2014-6-19,80.1,71.9,63.9,42.7,23.1,-0.3,43,20,5,30.06,30.00,4,0,5,0.00
2014-6-20,75.6,64.2,52.3,36.6,5.4,-19.6,45,15,2,30.06,29.97,6,0,6,0.00
2014-6-21,76.3,62.2,49.8,38.7,9.3,-14.5,48,20,3,30.06,30.00,5,0,8,0.00
2014-6-22,77.7,64.4,53.8,39.5,8.3,-19.7,47,17,3,30.15,30.00,4,0,4,0.00
2014-6-23,77.2,63.2,48.9,42.1,12.0,-12.1,51,22,3,30.30,30.15,4,0,6,0.00
2014-6-24,79.0,66.1,51.8,43.8,11.3,-16.5,53,20,2,30.33,30.18,8,0,8,0.00
2014-6-25,80.6,72.6,64.9,58.3,41.1,22.0,63,35,12,30.18,30.00,4,0,8,0.00
2014-6-26,80.4,69.6,61.0,65.3,51.0,35.0,76,53,29,30.09,29.88,6,0,8,0.28
2014-6-27,74.5,64.7,53.4,38.3,14.0,-12.0,44,20,3,30.33,30.06,5,0,6,0.00
2014-6-28,81.7,65.9,50.7,45.9,14.6,-16.6,55,24,2,30.42,30.33,4,0,6,0.00
2014-6-29,83.1,69.6,58.1,48.1,13.9,-16.6,59,23,2,30.39,30.24,5,0,6,0.00
2014-6-30,83.3,72.7,63.9,49.2,24.9,-16.6,54,26,2,30.27,30.06,6,0,7,0.00
2014-7-1,82.4,74.3,69.3,54.2,43.1,17.0,57,36,9,30.09,29.97,5,0,10,0.00
2014-7-2,86.0,76.9,71.2,58.6,48.5,24.3,62,41,11,30.09,29.97,5,0,10,0.00
2014-7-3,87.3,76.9,73.0,62.4,50.8,-3.9,65,47,3,30.12,30.03,5,0,5,0.00
2014-7-4,84.2,72.6,63.0,59.7,54.2,41.2,83,55,23,30.12,29.68,11,1,11,1.97
2014-7-5,78.4,66.7,57.0,57.9,21.0,-12.1,83,35,3,30.09,29.68,7,1,11,0.55
2014-7-6,84.0,74.5,67.3,29.6,-5.5,-16.6,23,5,2,30.12,30.00,7,1,13,0.00
2014-7-7,80.2,73.0,67.6,50.4,33.2,10.0,48,26,7,30.03,29.88,6,1,10,0.00
2014-7-8,84.4,75.2,69.8,57.1,43.8,16.6,57,36,8,29.94,29.85,6,0,8,0.00
2014-7-9,83.3,75.2,70.9,58.4,40.6,-0.5,62,34,4,30.06,29.85,4,0,7,0.00
2014-7-10,78.6,71.8,63.7,62.4,35.0,-10.4,71,39,3,30.27,30.06,4,0,6,0.20
2014-7-11,78.8,69.7,61.2,54.3,30.8,-16.6,62,33,2,30.36,30.24,3,0,4,0.00
2014-7-12,81.5,69.6,58.8,41.2,13.5,-16.6,52,22,2,30.36,30.27,4,0,6,0.00
2014-7-13,82.2,73.9,67.6,52.4,32.1,-14.9,53,28,2,30.27,30.09,5,1,9,0.00
2014-7-14,82.9,74.9,72.1,59.4,51.0,36.5,62,45,19,30.09,30.00,4,0,8,0.00
2014-7-15,78.4,74.7,72.7,64.5,59.2,53.6,71,59,43,30.03,29.91,10,1,10,0.00
2014-7-16,75.4,73.3,68.9,61.3,57.2,52.4,71,58,46,29.94,29.91,5,0,8,0.35
2014-7-17,82.4,70.9,67.5,63.9,56.6,0.0,71,64,4,30.18,29.94,0,0,4,0.04
2014-7-18,79.2,69.8,60.3,50.2,23.0,-16.6,57,26,2,30.36,30.18,0,0,0,0.00
2014-7-19,76.6,66.1,57.6,51.0,26.7,-12.1,64,31,3,30.42,30.33,0,0,3,0.00
2014-7-20,72.9,67.0,63.1,57.7,44.8,32.9,76,47,23,30.33,30.24,2,0,3,0.20
2014-7-21,74.3,67.4,63.5,59.0,49.0,31.4,78,54,22,30.30,30.21,0,0,3,0.00
2014-7-22,83.8,72.3,60.6,59.3,42.0,17.1,72,41,9,30.30,30.15,8,0,8,0.00
2014-7-23,83.1,75.0,70.0,57.5,38.1,1.1,59,30,5,30.15,29.91,6,1,9,0.00
2014-7-24,77.9,70.4,61.7,58.6,50.5,40.8,63,50,31,30.00,29.83,4,0,5,0.00
2014-7-25,79.5,69.8,61.7,54.7,24.7,-16.5,69,30,2,30.12,29.97,3,0,4,0.00
2014-7-26,81.0,71.5,64.6,48.7,37.5,-1.3,51,33,4,30.12,30.03,5,0,5,0.00
2014-7-27,80.6,72.3,66.7,59.3,46.4,23.1,64,42,12,30.03,29.83,6,0,9,0.00
2014-7-28,78.6,74.2,69.6,59.3,51.7,34.9,64,48,21,29.83,29.59,5,0,9,0.00
2014-7-29,79.3,71.3,65.3,46.8,24.2,-16.6,42,23,2,30.06,29.68,3,0,6,0.00
2014-7-30,81.7,69.3,59.7,51.9,21.0,-16.6,61,26,2,30.18,30.06,4,0,4,0.00
2014-7-31,82.2,70.3,58.3,54.4,18.9,-16.6,65,26,2,30.30,30.18,5,0,8,0.00
2014-8-1,82.2,70.8,62.1,53.6,34.2,-1.3,61,32,4,30.39,30.30,6,0,8,0.00
2014-8-2,67.6,64.8,61.7,58.3,46.3,33.2,79,55,28,30.39,30.21,0,0,4,0.55
2014-8-3,69.8,66.5,64.9,59.7,56.3,48.5,81,70,47,30.27,30.15,2,0,4,0.04
2014-8-4,84.2,71.6,66.2,59.7,50.5,16.6,79,52,8,30.18,30.12,6,0,6,0.00
2014-8-5,86.2,75.2,68.7,61.5,44.8,-4.7,71,44,3,30.15,30.00,4,0,5,0.00
2014-8-6,82.6,71.6,66.2,57.2,42.1,-14.4,67,46,2,30.00,29.88,3,0,6,0.04
2014-8-7,79.9,66.5,58.1,56.0,38.6,-16.6,67,48,2,30.03,29.91,3,0,6,0.31
2014-8-8,81.9,67.9,58.3,52.3,29.7,-16.6,70,37,2,30.12,30.03,4,0,5,0.00
2014-8-9,80.1,71.2,63.9,48.7,24.4,-15.8,55,27,2,30.21,30.09,4,0,4,0.00
2014-8-10,82.8,72.2,64.8,54.2,28.4,-16.5,61,33,2,30.27,30.18,2,0,4,0.00
2014-8-11,82.4,71.1,60.4,53.5,16.8,-16.6,62,26,2,30.30,30.24,5,0,8,0.00
2014-8-12,80.8,70.0,64.8,54.3,31.3,-1.3,66,30,4,30.27,30.18,5,0,6,0.00
2014-8-13,68.5,66.7,64.8,65.8,46.7,31.0,91,54,25,30.18,29.74,7,1,10,0.51
2014-8-14,78.6,69.5,57.7,66.2,23.0,-12.1,91,33,3,29.97,29.74,6,0,6,0.00
2014-8-15,79.9,67.4,57.4,56.0,23.2,-16.6,70,34,2,30.06,29.94,5,0,6,0.04
2014-8-16,79.3,69.7,59.7,42.8,9.6,-16.6,42,16,2,30.12,30.03,4,0,6,0.00
2014-8-17,82.4,76.2,64.0,56.6,15.9,-15.3,64,21,2,30.06,29.85,3,0,8,0.00
2014-8-18,81.7,66.2,58.3,48.2,21.6,-16.2,55,27,2,29.97,29.85,5,0,6,0.00
2014-8-19,78.6,64.7,56.3,47.7,25.5,-12.1,62,32,3,30.06,29.94,4,0,6,0.00
2014-8-20,80.2,66.2,55.4,42.9,23.1,-16.6,54,30,2,30.15,30.06,3,0,6,0.00
2014-8-21,89.1,70.4,63.0,53.4,28.7,-16.3,62,31,2,30.21,30.15,3,0,4,0.00
2014-8-22,68.7,66.4,62.4,53.3,45.9,36.0,60,48,37,30.21,30.15,3,0,4,0.04
2014-8-23,72.5,66.0,59.9,49.2,37.6,27.8,57,37,22,30.21,30.15,4,0,6,0.00
2014-8-24,74.7,65.1,57.9,47.5,27.7,-12.0,58,30,3,30.24,30.21,3,0,4,0.00
2014-8-25,79.2,66.8,57.7,54.0,21.6,-16.6,64,27,2,30.27,30.24,5,0,8,0.00
2014-8-26,79.3,66.9,55.9,43.4,16.1,-16.6,55,22,2,30.30,30.21,6,0,6,0.00
2014-8-27,83.5,72.6,63.5,53.3,21.8,-16.3,59,24,2,30.18,29.94,5,0,8,0.00
2014-8-28,79.7,72.7,67.8,40.3,11.0,-16.6,34,14,2,30.06,29.85,4,0,8,0.00
2014-8-29,73.0,66.3,57.9,26.7,5.8,-8.8,24,11,4,30.42,30.06,4,0,5,0.00
2014-8-30,72.1,62.3,49.6,44.0,15.9,-8.8,50,23,4,30.47,30.30,5,0,9,0.00
2014-8-31,79.9,72.7,63.1,58.5,45.4,18.1,61,41,10,30.30,30.09,5,1,10,0.24
2014-9-1,79.2,74.0,71.4,66.0,58.6,51.8,74,60,40,30.12,30.03,4,0,8,0.08
2014-9-2,84.6,75.3,70.7,65.8,56.1,47.4,74,53,28,30.06,29.88,4,0,7,0.00
2014-9-3,78.8,73.7,66.2,58.8,34.5,-9.2,61,31,3,30.18,29.83,5,1,6,0.00
2014-9-4,81.9,71.4,62.2,54.4,27.6,-16.6,62,29,2,30.33,30.18,4,0,5,0.00
2014-9-5,83.3,74.4,66.4,57.6,40.7,-1.0,61,36,4,30.30,30.12,0,0,0,0.00
2014-9-6,79.0,75.4,73.0,60.9,58.8,54.9,62,56,44,30.12,29.91,0,0,0,0.00
2014-9-7,74.3,68.0,57.6,57.9,42.1,30.0,58,41,23,30.33,29.97,0,0,0,0.00
2014-9-8,73.6,64.5,55.8,48.2,21.5,-8.0,56,25,4,30.50,30.33,0,0,0,0.00
2014-9-9,71.4,67.5,65.3,38.4,25.4,8.6,35,21,9,30.47,30.30,0,0,0,0.00
2014-9-10,73.6,67.9,62.2,43.9,39.4,34.0,42,36,24,30.30,30.15,0,0,0,0.00
2014-9-11,74.1,67.7,57.9,50.4,39.2,8.6,61,38,8,30.15,29.91,4,0,6,0.00
2014-9-12,72.0,65.1,55.6,50.9,26.2,1.0,48,26,7,30.33,29.97,0,0,0,0.00
2014-9-13,70.7,63.0,54.3,42.9,26.4,-4.8,46,28,5,30.39,30.18,0,0,0,0.00
2014-9-14,64.0,59.9,51.1,44.5,28.4,0.5,50,33,8,30.33,30.18,0,0,0,0.00
2014-9-15,66.2,56.2,48.2,26.1,10.6,-8.0,39,21,5,30.33,30.24,0,0,0,0.00
2014-9-16,70.7,60.4,53.6,37.1,18.1,-8.8,44,24,4,30.24,30.06,0,0,0,0.00
2014-9-17,68.9,59.3,51.6,40.7,21.2,-7.9,47,26,5,30.12,30.06,4,0,7,0.00
2014-9-18,70.5,60.0,49.3,36.2,12.7,-8.8,45,21,4,30.21,30.03,4,0,6,0.00
2014-9-19,62.1,56.0,45.1,25.4,-3.8,-10.8,25,9,6,30.56,30.21,5,1,6,0.00
2014-9-20,69.1,56.3,41.9,35.7,15.1,-6.1,48,23,5,30.56,30.27,8,1,8,0.00
2014-9-21,75.0,67.4,61.0,53.2,47.4,35.9,60,49,37,30.27,29.62,4,1,8,0.00
2014-9-22,74.8,67.8,58.3,54.4,23.3,-12.1,64,31,3,30.18,29.62,6,2,11,0.00
2014-9-23,64.8,58.6,52.3,18.6,-4.2,-8.0,26,8,5,30.56,30.18,6,0,9,0.00
2014-9-24,68.4,59.1,51.3,38.5,22.7,7.6,47,26,10,30.77,30.56,4,0,5,0.00
2014-9-25,63.5,60.6,54.9,46.8,38.1,27.0,60,44,34,30.68,30.33,0,0,4,0.87
2014-9-26,66.2,61.2,54.0,53.0,45.8,36.3,66,57,46,30.33,30.24,3,0,5,0.28
2014-9-27,72.0,61.8,53.1,49.6,38.7,31.7,60,44,24,30.30,30.24,0,0,5,0.00
2014-9-28,77.7,65.0,54.5,50.2,34.2,9.6,60,36,8,30.30,30.12,4,0,6,0.00
2014-9-29,75.0,67.5,63.9,52.4,44.6,40.0,56,44,34,30.12,30.03,2,0,4,0.00
2014-9-30,64.8,62.8,61.9,48.3,46.4,42.7,61,55,46,30.12,30.06,3,0,4,0.00
2014-10-1,70.7,62.2,60.1,57.8,47.4,39.4,92,59,32,30.15,30.06,4,0,7,2.01
2014-10-2,60.4,58.2,55.0,57.8,56.4,54.0,97,94,91,30.24,30.12,6,0,6,0.08
2014-10-3,62.2,57.5,53.8,58.5,56.4,32.4,98,96,39,30.21,30.00,5,0,5,0.00
2014-10-4,64.2,60.9,58.3,62.2,59.6,57.4,98,96,94,30.00,29.65,4,0,5,0.12
2014-10-5,66.2,57.8,47.8,65.1,57.0,47.3,98,97,94,30.06,29.65,6,0,6,0.04
2014-10-6,67.5,54.0,42.4,66.9,51.6,41.9,98,92,71,30.33,30.09,5,0,8,0.00
2014-10-7,71.8,64.1,58.6,66.9,59.5,54.7,98,86,59,30.33,30.15,10,1,10,0.00
2014-10-8,72.3,65.7,62.6,68.1,50.3,25.8,94,65,22,30.15,29.85,8,1,10,0.24
2014-10-9,68.5,59.6,47.8,56.7,36.6,-6.7,84,50,6,30.09,29.94,6,1,8,0.00
2014-10-10,71.6,55.5,49.3,29.2,15.8,-10.6,42,26,4,30.24,30.09,5,0,7,0.00
2014-10-11,53.2,51.7,45.7,50.1,44.4,0.0,98,79,39,30.24,30.12,0,0,0,0.55
2014-10-12,61.2,48.6,41.0,60.6,47.4,39.7,98,96,87,30.45,30.21,3,0,5,0.00
2014-10-13,77.2,52.5,40.1,58.8,28.3,-18.5,98,55,3,30.53,30.42,6,0,7,0.00
2014-10-14,75.2,65.6,58.8,64.3,51.6,21.2,90,65,11,30.42,30.33,5,1,6,0.00
2014-10-15,86.4,70.7,64.4,68.5,47.5,-4.0,92,53,3,30.33,30.12,6,1,8,0.00
2014-10-16,76.8,67.4,63.5,68.3,60.8,40.3,95,81,30,30.12,29.80,9,2,12,0.75
2014-10-17,69.6,63.2,60.6,70.3,60.1,36.1,98,90,32,29.83,29.68,6,0,8,0.08
2014-10-18,68.4,60.4,56.7,67.4,59.8,56.1,98,98,96,29.80,29.68,4,0,8,0.00
2014-10-19,54.0,50.9,48.2,42.5,35.1,30.3,65,55,49,30.03,29.85,8,3,10,0.00
2014-10-20,59.0,48.9,40.6,38.5,33.3,28.2,68,55,38,30.18,30.03,6,1,8,0.00
2014-10-21,60.3,56.4,46.6,51.6,48.3,28.3,81,74,49,30.15,30.00,5,0,10,0.00
2014-10-22,59.4,57.5,54.1,56.7,53.3,47.3,94,85,76,30.06,29.77,6,0,8,0.08
2014-10-23,71.2,60.8,56.7,67.8,55.9,15.2,98,91,12,29.77,29.56,4,0,8,1.77
2014-10-24,62.8,52.7,50.7,56.6,50.2,22.5,98,94,8,29.83,29.62,6,1,10,0.08
2014-10-25,79.9,55.2,47.8,77.3,37.8,-8.0,98,73,6,29.85,29.62,4,0,4,0.00
2014-10-26,64.8,56.0,50.4,38.0,11.1,-9.4,47,20,5,29.80,29.53,8,2,10,0.00
2014-10-27,63.9,52.6,47.3,25.5,10.0,-6.9,41,21,6,30.15,29.80,8,1,8,0.00
2014-10-28,64.8,53.8,41.5,42.0,30.1,22.6,55,42,20,30.21,30.06,6,0,7,0.00
2014-10-29,69.3,63.5,56.8,63.2,49.6,26.5,90,64,31,30.06,29.91,6,0,8,0.00
2014-10-30,57.9,54.3,50.7,30.9,16.5,-1.1,39,24,9,30.09,29.97,4,0,6,0.00
2014-10-31,57.6,52.4,48.2,44.4,27.6,4.4,74,46,12,30.12,30.00,5,0,6,0.00
2014-11-1,52.7,51.4,48.7,47.6,38.6,34.1,95,63,52,30.00,29.77,6,1,8,0.35
2014-11-2,45.3,40.5,37.9,44.8,39.3,0.0,98,98,98,29.74,29.53,10,5,13,1.54
2014-11-3,50.5,49.5,48.0,41.9,41.4,40.7,76,73,71,30.09,30.03,6,3,7,0.00
2014-11-4,63.7,56.6,49.1,55.7,50.4,44.7,88,81,63,30.24,30.15,2,0,4,0.00
2014-11-5,62.6,55.1,48.4,48.7,45.4,40.8,75,70,55,30.24,30.09,4,0,8,0.00
2014-11-6,58.5,51.9,47.3,57.9,48.7,40.1,98,89,75,30.24,29.56,3,0,5,0.67
2014-11-7,55.9,47.9,41.5,55.4,47.4,40.8,98,98,98,29.85,29.50,10,2,13,0.00
2014-11-8,52.0,43.0,37.6,47.2,39.3,34.5,98,87,62,30.09,29.85,12,2,12,0.00
2014-11-9,56.5,48.8,40.3,55.1,45.7,36.8,98,90,79,30.09,30.00,4,0,6,0.00
2014-11-10,61.7,46.1,36.3,57.4,39.8,34.8,98,80,46,30.36,30.09,4,0,5,0.00
2014-11-11,65.5,50.3,38.3,58.4,44.2,35.0,96,80,58,30.33,30.09,5,0,9,0.00
2014-11-12,65.3,55.5,49.5,63.0,51.4,43.6,97,86,73,30.09,29.94,6,0,8,0.00
2014-11-13,57.9,48.2,43.7,43.6,35.6,30.1,73,62,49,30.15,30.00,5,1,8,0.00
2014-11-14,45.7,39.9,37.0,40.8,37.3,33.9,98,91,73,30.18,29.94,5,2,8,0.43
2014-11-15,44.6,35.6,28.4,36.8,31.1,24.4,90,84,71,30.47,30.18,6,1,8,0.00
2014-11-16,43.2,37.3,26.4,41.9,34.8,25.0,98,91,80,30.53,30.24,0,0,3,0.00
2014-11-17,60.6,50.0,42.3,59.2,49.5,41.7,98,98,97,30.24,29.50,8,1,10,2.05
2014-11-18,57.6,42.1,29.7,56.7,41.5,29.0,98,98,97,30.03,29.50,7,2,11,0.04
2014-11-19,44.1,33.3,26.4,39.0,30.2,0.0,98,90,67,30.27,30.06,10,2,10,0.00
2014-11-20,54.1,44.0,36.5,50.6,34.3,28.5,98,70,42,30.18,29.88,11,2,11,0.00
2014-11-21,42.8,35.7,31.1,28.8,18.8,13.1,67,50,42,30.53,29.97,10,4,11,0.00
2014-11-22,49.1,38.7,28.2,31.1,21.0,12.9,55,49,38,30.56,30.21,9,3,13,0.00
2014-11-23,64.2,52.4,44.8,40.5,34.2,29.4,71,50,36,30.30,30.21,8,2,11,0.00
2014-11-24,62.1,57.3,49.1,61.5,52.9,0.0,98,86,69,30.24,29.80,13,4,16,0.31
2014-11-25,61.0,57.3,50.7,60.4,56.7,50.2,98,98,98,30.24,29.85,6,1,10,0.00
2014-11-26,50.5,46.7,45.0,50.0,46.1,44.4,98,98,96,30.30,29.56,8,1,10,1.89
2014-11-27,45.0,39.1,36.7,44.4,38.5,36.2,98,98,98,30.06,29.56,10,2,13,0.20
2014-11-28,38.1,35.1,32.2,37.6,34.4,0.0,98,98,98,30.30,30.00,8,2,11,0.20
2014-11-29,41.4,32.2,27.7,40.7,31.7,27.2,98,98,98,30.47,30.30,6,1,8,0.00
2014-11-30,60.3,49.5,29.5,57.2,46.0,29.0,98,88,60,30.45,30.18,10,2,10,0.00
2014-12-1,66.2,55.0,42.4,57.0,48.2,35.4,95,79,51,30.53,30.15,9,2,9,0.04
2014-12-2,45.3,40.6,39.0,40.5,30.4,24.1,83,67,54,30.80,30.50,6,1,8,0.04
2014-12-3,55.6,52.1,43.7,54.8,51.0,41.0,98,96,84,30.50,30.00,13,3,14,0.28
2014-12-4,50.5,39.8,32.5,43.0,34.6,28.6,98,82,71,30.65,30.18,10,2,11,0.00
2014-12-5,49.6,39.1,30.4,45.2,33.4,28.1,96,81,61,30.80,30.59,7,0,7,0.00
2014-12-6,51.6,48.2,43.3,51.1,46.6,35.1,98,94,72,30.59,30.24,5,1,8,1.02
2014-12-7,44.6,37.2,30.9,44.1,36.7,29.7,98,98,96,30.74,30.24,8,3,10,0.51
2014-12-8,42.8,35.7,30.7,41.3,34.1,29.3,97,94,90,30.83,30.59,6,2,8,0.00
2014-12-9,57.2,49.4,42.8,56.6,48.5,0.0,98,97,94,30.59,29.59,10,2,10,2.60
2014-12-10,50.0,46.1,41.5,49.5,45.6,41.0,98,98,98,29.65,29.50,5,0,6,0.08
2014-12-11,42.6,38.7,34.9,42.1,38.1,34.4,98,97,98,29.91,29.56,9,1,12,0.00
2014-12-12,45.3,36.7,30.4,44.6,36.2,29.9,98,98,98,29.97,29.91,6,1,6,0.00
2014-12-13,38.7,37.2,36.1,38.3,36.7,35.6,98,98,98,29.94,29.85,7,2,8,0.04
2014-12-14,44.2,38.9,32.7,43.7,38.4,32.0,98,98,98,29.97,29.83,5,1,8,0.00
2014-12-15,43.2,39.3,32.4,42.6,38.7,31.9,98,98,98,30.24,29.97,5,0,6,0.00
2014-12-16,46.8,43.7,40.6,46.2,42.9,0.0,98,98,98,30.27,30.00,0,0,4,0.00
2014-12-17,55.8,48.2,43.9,55.2,47.7,43.3,98,98,98,30.00,29.74,10,2,10,0.28
2014-12-18,45.7,41.2,37.9,45.3,39.8,35.4,98,95,87,29.94,29.80,13,4,13,0.00
2014-12-19,38.7,37.5,36.3,36.1,34.6,32.8,93,89,86,30.21,29.91,6,3,10,0.00
2014-12-20,43.7,39.3,36.5,43.2,38.0,33.0,98,95,87,30.39,30.21,4,0,6,0.04
2014-12-21,44.1,41.3,38.1,43.5,40.8,37.6,98,98,98,30.45,30.36,3,0,4,0.00
2014-12-22,56.7,44.1,37.0,54.5,39.5,34.4,98,85,62,30.50,30.39,4,0,6,0.00
2014-12-23,49.6,47.6,44.6,49.1,45.4,37.2,98,92,75,30.39,30.21,4,0,6,0.24
2014-12-24,61.2,52.7,48.4,59.7,52.0,47.8,98,98,95,30.21,29.71,10,1,13,0.20
2014-12-25,61.3,52.2,41.7,59.9,51.1,41.2,98,96,94,30.06,29.62,9,2,13,0.12
2014-12-26,55.2,42.4,34.0,55.2,41.9,33.5,98,98,98,30.27,30.06,8,1,9,0.08
2014-12-27,58.8,42.2,31.6,58.3,40.3,31.1,98,93,78,30.33,30.18,4,0,6,0.20
2014-12-28,51.4,47.5,42.1,50.9,46.8,40.2,98,97,93,30.18,29.85,5,1,8,0.04
2014-12-29,49.1,40.2,35.6,41.7,31.3,22.3,94,71,51,30.30,30.06,8,1,8,0.00
2014-12-30,35.6,29.3,22.3,22.3,14.3,7.3,67,53,47,30.45,30.30,11,1,11,0.00
2014-12-31,38.3,27.5,22.1,17.1,10.2,5.0,60,48,39,30.45,30.24,9,1,10,0.00
2015-1-1,40.5,32.0,23.9,17.5,11.0,5.6,49,41,30,30.24,30.03,8,3,12,0.00
2015-1-2,49.8,38.9,33.6,19.8,14.8,10.6,43,37,28,30.56,30.03,10,4,13,0.00